PWSweather.com
Personal Weather Stations
Station Observations
79674
AfterstegDE 79674

AfterstegDE 79674

Lat: 47.84344, Lon: 7.92844

Elevation: 809

Station Type: Davis Vantage 2 Aktive

Latest ConditionsUpdated 5:17:32 PM GMT+01:01 Thursday, Mar 23, 2017
Currently Today's Max Today's Min Today's Average
Temperature 56.8°F13.8°C 59.5°F15.3°C 37.6°F3.1°C 47.2°F8.4°C
Dew Point 43.2°F6.2°C 43.5°F6.4°C 35.2°F1.8°C 38.3°F3.5°C
Winds 2.9 mph WSW4.7 kmh WSW 8.1 mph SSE13.0 kmh SSE - 2.7 mph 4.3 kmh
Wind Gusts 2.9 mph4.7 kmh 12.1 mph19.5 kmh - -
Humidity 60% 94% 44% 74%
Pressure 29.88 in1011.9 mb 29.98 in1015.2 mb 29.88 in1011.9 mb -
Hour Temp Dew Point Humidity Winds Wind Gusts Pressure Precip Precip Rate Daily Precip Total
05:17 PM 56.8°F13.8°C 43.2°F6.2°C 60% 2.9 mph WSW4.7 kmh WSW 2.9 mph4.7 kmh 29.88 in1011.9 mb - 0.00 in0.0 mm 0.00 in0.0 mm
05:12 PM 57.0°F13.9°C 43.3°F6.3°C 60% 2.9 mph SSW4.7 kmh SSW 6.9 mph11.1 kmh 29.88 in1011.9 mb - 0.00 in0.0 mm 0.00 in0.0 mm
05:07 PM 57.4°F14.1°C 43.2°F6.2°C 59% 4.0 mph S6.4 kmh S 0.9 mph1.4 kmh 29.88 in1011.9 mb - 0.00 in0.0 mm 0.00 in0.0 mm
05:02 PM 57.4°F14.1°C 42.8°F6.0°C 58% 6.0 mph S9.7 kmh S 4.0 mph6.4 kmh 29.88 in1011.9 mb - 0.00 in0.0 mm 0.00 in0.0 mm
04:57 PM 57.6°F14.2°C 43.3°F6.3°C 59% 6.0 mph SE9.7 kmh SE 4.0 mph6.4 kmh 29.88 in1011.9 mb - 0.00 in0.0 mm 0.00 in0.0 mm
04:52 PM 57.9°F14.4°C 42.8°F6.0°C 57% 6.0 mph S9.7 kmh S 11.0 mph17.7 kmh 29.88 in1011.9 mb - 0.00 in0.0 mm 0.00 in0.0 mm
04:47 PM 57.9°F14.4°C 43.2°F6.2°C 58% 6.9 mph SSW11.1 kmh SSW 4.0 mph6.4 kmh 29.88 in1011.9 mb - 0.00 in0.0 mm 0.00 in0.0 mm
04:42 PM 57.9°F14.4°C 42.8°F6.0°C 57% 6.9 mph S11.1 kmh S 6.9 mph11.1 kmh 29.88 in1011.9 mb - 0.00 in0.0 mm 0.00 in0.0 mm
04:37 PM 58.5°F14.7°C 43.3°F6.3°C 57% 6.0 mph S9.7 kmh S 8.9 mph14.3 kmh 29.88 in1011.9 mb - 0.00 in0.0 mm 0.00 in0.0 mm
04:32 PM 58.6°F14.8°C 43.0°F6.1°C 56% 6.0 mph S9.7 kmh S 6.9 mph11.1 kmh 29.88 in1011.9 mb - 0.00 in0.0 mm 0.00 in0.0 mm
04:27 PM 58.6°F14.8°C 43.0°F6.1°C 56% 4.9 mph SE7.9 kmh SE 6.9 mph11.1 kmh 29.88 in1011.9 mb - 0.00 in0.0 mm 0.00 in0.0 mm
04:22 PM 58.8°F14.9°C 43.2°F6.2°C 56% 4.9 mph SSE7.9 kmh SSE 4.9 mph7.9 kmh 29.88 in1011.9 mb - 0.00 in0.0 mm 0.00 in0.0 mm
04:17 PM 59.0°F15.0°C 42.8°F6.0°C 55% 4.9 mph SSW7.9 kmh SSW 6.0 mph9.7 kmh 29.88 in1011.9 mb - 0.00 in0.0 mm 0.00 in0.0 mm
04:12 PM 58.8°F14.9°C 42.6°F5.9°C 55% 6.0 mph S9.7 kmh S 8.1 mph13.0 kmh 29.88 in1011.9 mb - 0.00 in0.0 mm 0.00 in0.0 mm
04:07 PM 59.0°F15.0°C 42.8°F6.0°C 55% 6.0 mph SSE9.7 kmh SSE 4.9 mph7.9 kmh 29.88 in1011.9 mb - 0.00 in0.0 mm 0.00 in0.0 mm
04:02 PM 59.2°F15.1°C 42.6°F5.9°C 54% 4.9 mph SSW7.9 kmh SSW 6.0 mph9.7 kmh 29.88 in1011.9 mb - 0.00 in0.0 mm 0.00 in0.0 mm
03:57 PM 59.2°F15.1°C 42.1°F5.6°C 53% 4.9 mph SW7.9 kmh SW 2.9 mph4.7 kmh 29.88 in1011.9 mb - 0.00 in0.0 mm 0.00 in0.0 mm
03:52 PM 59.2°F15.1°C 41.5°F5.3°C 52% 4.9 mph SE7.9 kmh SE 8.1 mph13.0 kmh 29.88 in1011.9 mb - 0.00 in0.0 mm 0.00 in0.0 mm
03:47 PM 59.2°F15.1°C 43.0°F6.1°C 55% 4.0 mph S6.4 kmh S 4.9 mph7.9 kmh 29.88 in1011.9 mb - 0.00 in0.0 mm 0.00 in0.0 mm
03:42 PM 59.4°F15.2°C 41.2°F5.1°C 51% 6.0 mph SW9.7 kmh SW 4.9 mph7.9 kmh 29.88 in1011.9 mb - 0.00 in0.0 mm 0.00 in0.0 mm
03:37 PM 59.5°F15.3°C 42.8°F6.0°C 54% 6.0 mph SE9.7 kmh SE 4.9 mph7.9 kmh 29.88 in1011.9 mb - 0.00 in0.0 mm 0.00 in0.0 mm
03:32 PM 59.4°F15.2°C 42.8°F6.0°C 54% 4.0 mph SSE6.4 kmh SSE 4.0 mph6.4 kmh 29.88 in1011.9 mb - 0.00 in0.0 mm 0.00 in0.0 mm
03:27 PM 59.0°F15.0°C 41.9°F5.5°C 53% 2.9 mph S4.7 kmh S 4.9 mph7.9 kmh 29.88 in1011.9 mb - 0.00 in0.0 mm 0.00 in0.0 mm
03:22 PM 59.2°F15.1°C 41.5°F5.3°C 52% 4.9 mph S7.9 kmh S 4.0 mph6.4 kmh 29.88 in1011.9 mb - 0.00 in0.0 mm 0.00 in0.0 mm
03:17 PM 59.2°F15.1°C 43.5°F6.4°C 56% 6.0 mph NW9.7 kmh NW 6.0 mph9.7 kmh 29.88 in1011.9 mb - 0.00 in0.0 mm 0.00 in0.0 mm
03:12 PM 58.8°F14.9°C 41.7°F5.4°C 53% 6.0 mph SW9.7 kmh SW 10.1 mph16.3 kmh 29.89 in1012.2 mb - 0.00 in0.0 mm 0.00 in0.0 mm
03:07 PM 59.2°F15.1°C 42.6°F5.9°C 54% 4.0 mph S6.4 kmh S 6.9 mph11.1 kmh 29.89 in1012.2 mb - 0.00 in0.0 mm 0.00 in0.0 mm
03:02 PM 59.4°F15.2°C 42.8°F6.0°C 54% 4.0 mph SE6.4 kmh SE 4.0 mph6.4 kmh 29.89 in1012.2 mb - 0.00 in0.0 mm 0.00 in0.0 mm
02:57 PM 58.6°F14.8°C 42.4°F5.8°C 55% 4.9 mph S7.9 kmh S 4.0 mph6.4 kmh 29.89 in1012.2 mb - 0.00 in0.0 mm 0.00 in0.0 mm
02:52 PM 58.5°F14.7°C 42.4°F5.8°C 55% 6.0 mph S9.7 kmh S 6.0 mph9.7 kmh 29.90 in1012.5 mb - 0.00 in0.0 mm 0.00 in0.0 mm
02:47 PM 58.8°F14.9°C 42.6°F5.9°C 55% 4.9 mph S7.9 kmh S 4.0 mph6.4 kmh 29.90 in1012.5 mb - 0.00 in0.0 mm 0.00 in0.0 mm
02:42 PM 59.0°F15.0°C 41.9°F5.5°C 53% 4.0 mph S6.4 kmh S 8.9 mph14.3 kmh 29.90 in1012.5 mb - 0.00 in0.0 mm 0.00 in0.0 mm
02:37 PM 58.5°F14.7°C 42.4°F5.8°C 55% 4.0 mph S6.4 kmh S 4.9 mph7.9 kmh 29.90 in1012.5 mb - 0.00 in0.0 mm 0.00 in0.0 mm
02:32 PM 58.3°F14.6°C 42.3°F5.7°C 55% 4.9 mph S7.9 kmh S 4.0 mph6.4 kmh 29.90 in1012.5 mb - 0.00 in0.0 mm 0.00 in0.0 mm
02:27 PM 58.5°F14.7°C 41.4°F5.2°C 53% 4.9 mph S7.9 kmh S 4.0 mph6.4 kmh 29.90 in1012.5 mb - 0.00 in0.0 mm 0.00 in0.0 mm
02:22 PM 59.5°F15.3°C 42.8°F6.0°C 54% 4.9 mph S7.9 kmh S 4.9 mph7.9 kmh 29.90 in1012.5 mb - 0.00 in0.0 mm 0.00 in0.0 mm
02:17 PM 59.2°F15.1°C 42.1°F5.6°C 53% 4.9 mph SSE7.9 kmh SSE 2.9 mph4.7 kmh 29.90 in1012.5 mb - 0.00 in0.0 mm 0.00 in0.0 mm
02:12 PM 59.0°F15.0°C 41.9°F5.5°C 53% 4.0 mph SW6.4 kmh SW 4.0 mph6.4 kmh 29.90 in1012.5 mb - 0.00 in0.0 mm 0.00 in0.0 mm
02:07 PM 58.8°F14.9°C 41.2°F5.1°C 52% 2.9 mph SW4.7 kmh SW 4.0 mph6.4 kmh 29.91 in1012.9 mb - 0.00 in0.0 mm 0.00 in0.0 mm
02:02 PM 58.5°F14.7°C 40.5°F4.7°C 51% 4.0 mph WSW6.4 kmh WSW 2.0 mph3.2 kmh 29.91 in1012.9 mb - 0.00 in0.0 mm 0.00 in0.0 mm
01:57 PM 58.6°F14.8°C 40.1°F4.5°C 50% 4.9 mph S7.9 kmh S 6.9 mph11.1 kmh 29.91 in1012.9 mb - 0.00 in0.0 mm 0.00 in0.0 mm
01:52 PM 59.4°F15.2°C 40.3°F4.6°C 49% 4.9 mph S7.9 kmh S 6.0 mph9.7 kmh 29.91 in1012.9 mb - 0.00 in0.0 mm 0.00 in0.0 mm
01:47 PM 58.8°F14.9°C 40.3°F4.6°C 50% 6.0 mph S9.7 kmh S 4.9 mph7.9 kmh 29.91 in1012.9 mb - 0.00 in0.0 mm 0.00 in0.0 mm
01:42 PM 58.5°F14.7°C 39.4°F4.1°C 49% 6.0 mph SW9.7 kmh SW 8.9 mph14.3 kmh 29.91 in1012.9 mb - 0.00 in0.0 mm 0.00 in0.0 mm
01:37 PM 59.0°F15.0°C 39.9°F4.4°C 49% 4.9 mph SW7.9 kmh SW 12.1 mph19.5 kmh 29.91 in1012.9 mb - 0.00 in0.0 mm 0.00 in0.0 mm
01:32 PM 58.6°F14.8°C 40.1°F4.5°C 50% 4.9 mph SSE7.9 kmh SSE 2.0 mph3.2 kmh 29.91 in1012.9 mb - 0.00 in0.0 mm 0.00 in0.0 mm
01:27 PM 58.5°F14.7°C 39.4°F4.1°C 49% 4.9 mph S7.9 kmh S 12.1 mph19.5 kmh 29.91 in1012.9 mb - 0.00 in0.0 mm 0.00 in0.0 mm
01:22 PM 58.3°F14.6°C 39.7°F4.3°C 50% 4.0 mph WSW6.4 kmh WSW 6.0 mph9.7 kmh 29.91 in1012.9 mb - 0.00 in0.0 mm 0.00 in0.0 mm
01:17 PM 57.9°F14.4°C 39.4°F4.1°C 50% 6.0 mph SW9.7 kmh SW 2.0 mph3.2 kmh 29.91 in1012.9 mb - 0.00 in0.0 mm 0.00 in0.0 mm
01:12 PM 57.7°F14.3°C 39.2°F4.0°C 50% 6.9 mph SSW11.1 kmh SSW 4.0 mph6.4 kmh 29.91 in1012.9 mb - 0.00 in0.0 mm 0.00 in0.0 mm
01:07 PM 57.9°F14.4°C 39.9°F4.4°C 51% 6.0 mph SSW9.7 kmh SSW 6.9 mph11.1 kmh 29.92 in1013.2 mb - 0.00 in0.0 mm 0.00 in0.0 mm
01:02 PM 57.2°F14.0°C 37.8°F3.2°C 48% 6.0 mph S9.7 kmh S 6.9 mph11.1 kmh 29.91 in1012.9 mb - 0.00 in0.0 mm 0.00 in0.0 mm
12:57 PM 57.7°F14.3°C 38.1°F3.4°C 48% 4.9 mph S7.9 kmh S 8.1 mph13.0 kmh 29.92 in1013.2 mb - 0.00 in0.0 mm 0.00 in0.0 mm
12:52 PM 57.7°F14.3°C 37.6°F3.1°C 47% 4.9 mph SSW7.9 kmh SSW 4.0 mph6.4 kmh 29.91 in1012.9 mb - 0.00 in0.0 mm 0.00 in0.0 mm
12:47 PM 56.8°F13.8°C 36.3°F2.4°C 46% 4.0 mph NNW6.4 kmh NNW 0.9 mph1.4 kmh 29.92 in1013.2 mb - 0.00 in0.0 mm 0.00 in0.0 mm
12:42 PM 57.4°F14.1°C 37.4°F3.0°C 47% 4.0 mph SW6.4 kmh SW 6.9 mph11.1 kmh 29.92 in1013.2 mb - 0.00 in0.0 mm 0.00 in0.0 mm
12:37 PM 57.6°F14.2°C 36.9°F2.7°C 46% 6.0 mph S9.7 kmh S 2.0 mph3.2 kmh 29.92 in1013.2 mb - 0.00 in0.0 mm 0.00 in0.0 mm
12:32 PM 56.8°F13.8°C 36.3°F2.4°C 46% 6.9 mph S11.1 kmh S 8.9 mph14.3 kmh 29.92 in1013.2 mb - 0.00 in0.0 mm 0.00 in0.0 mm
12:27 PM 57.0°F13.9°C 36.0°F2.2°C 45% 8.1 mph S13.0 kmh S 12.1 mph19.5 kmh 29.93 in1013.5 mb - 0.00 in0.0 mm 0.00 in0.0 mm
12:22 PM 57.0°F13.9°C 36.0°F2.2°C 45% 6.9 mph S11.1 kmh S 6.9 mph11.1 kmh 29.92 in1013.2 mb - 0.00 in0.0 mm 0.00 in0.0 mm
12:17 PM 57.0°F13.9°C 36.5°F2.5°C 46% 8.1 mph S13.0 kmh S 6.9 mph11.1 kmh 29.92 in1013.2 mb - 0.00 in0.0 mm 0.00 in0.0 mm
12:12 PM 57.0°F13.9°C 35.2°F1.8°C 44% 6.9 mph SE11.1 kmh SE 10.1 mph16.3 kmh 29.92 in1013.2 mb - 0.00 in0.0 mm 0.00 in0.0 mm
12:07 PM 57.2°F14.0°C 36.0°F2.2°C 45% 6.9 mph SSW11.1 kmh SSW 6.0 mph9.7 kmh 29.92 in1013.2 mb - 0.00 in0.0 mm 0.00 in0.0 mm
12:02 PM 57.0°F13.9°C 37.6°F3.1°C 48% 6.9 mph SSW11.1 kmh SSW 4.9 mph7.9 kmh 29.93 in1013.5 mb - 0.00 in0.0 mm 0.00 in0.0 mm
11:57 AM 56.7°F13.7°C 36.7°F2.6°C 47% 8.1 mph SSE13.0 kmh SSE 12.1 mph19.5 kmh 29.93 in1013.5 mb - 0.00 in0.0 mm 0.00 in0.0 mm
11:52 AM 56.5°F13.6°C 37.0°F2.8°C 48% 6.0 mph SSW9.7 kmh SSW 6.0 mph9.7 kmh 29.93 in1013.5 mb - 0.00 in0.0 mm 0.00 in0.0 mm
11:47 AM 56.7°F13.7°C 39.7°F4.3°C 53% 2.9 mph SSW4.7 kmh SSW 6.0 mph9.7 kmh 29.93 in1013.5 mb - 0.00 in0.0 mm 0.00 in0.0 mm
11:42 AM 55.0°F12.8°C 38.3°F3.5°C 53% 2.0 mph SSW3.2 kmh SSW 0.9 mph1.4 kmh 29.94 in1013.9 mb - 0.00 in0.0 mm 0.00 in0.0 mm
11:37 AM 54.7°F12.6°C 39.4°F4.1°C 56% 2.9 mph SE4.7 kmh SE 2.9 mph4.7 kmh 29.94 in1013.9 mb - 0.00 in0.0 mm 0.00 in0.0 mm
11:32 AM 54.3°F12.4°C 39.9°F4.4°C 58% 4.0 mph SSW6.4 kmh SSW 2.0 mph3.2 kmh 29.94 in1013.9 mb - 0.00 in0.0 mm 0.00 in0.0 mm
11:27 AM 54.1°F12.3°C 39.2°F4.0°C 57% 4.0 mph S6.4 kmh S 2.9 mph4.7 kmh 29.94 in1013.9 mb - 0.00 in0.0 mm 0.00 in0.0 mm
11:22 AM 53.8°F12.1°C 39.7°F4.3°C 59% 2.9 mph SSE4.7 kmh SSE 2.0 mph3.2 kmh 29.94 in1013.9 mb - 0.00 in0.0 mm 0.00 in0.0 mm
11:17 AM 53.8°F12.1°C 40.3°F4.6°C 60% 2.9 mph S4.7 kmh S -- 29.95 in1014.2 mb - 0.00 in0.0 mm 0.00 in0.0 mm
11:12 AM 53.1°F11.7°C 39.6°F4.2°C 60% 2.9 mph S4.7 kmh S 2.0 mph3.2 kmh 29.95 in1014.2 mb - 0.00 in0.0 mm 0.00 in0.0 mm
11:07 AM 52.5°F11.4°C 39.4°F4.1°C 61% 4.0 mph SW6.4 kmh SW 4.9 mph7.9 kmh 29.95 in1014.2 mb - 0.00 in0.0 mm 0.00 in0.0 mm
11:02 AM 52.5°F11.4°C 39.0°F3.9°C 60% 4.9 mph S7.9 kmh S 4.9 mph7.9 kmh 29.96 in1014.6 mb - 0.00 in0.0 mm 0.00 in0.0 mm
10:57 AM 52.2°F11.2°C 39.9°F4.4°C 63% 4.9 mph S7.9 kmh S 4.9 mph7.9 kmh 29.96 in1014.6 mb - 0.00 in0.0 mm 0.00 in0.0 mm
10:52 AM 52.2°F11.2°C 38.7°F3.7°C 60% 4.9 mph SSE7.9 kmh SSE 4.9 mph7.9 kmh 29.96 in1014.6 mb - 0.00 in0.0 mm 0.00 in0.0 mm
10:47 AM 52.3°F11.3°C 39.7°F4.3°C 62% 4.9 mph SSE7.9 kmh SSE 4.0 mph6.4 kmh 29.96 in1014.6 mb - 0.00 in0.0 mm 0.00 in0.0 mm
10:42 AM 52.2°F11.2°C 39.2°F4.0°C 61% 4.9 mph SSE7.9 kmh SSE 6.0 mph9.7 kmh 29.95 in1014.2 mb - 0.00 in0.0 mm 0.00 in0.0 mm
10:37 AM 52.3°F11.3°C 38.8°F3.8°C 60% 4.0 mph SE6.4 kmh SE 4.9 mph7.9 kmh 29.95 in1014.2 mb - 0.00 in0.0 mm 0.00 in0.0 mm
10:32 AM 52.2°F11.2°C 39.6°F4.2°C 62% 4.0 mph S6.4 kmh S 6.0 mph9.7 kmh 29.95 in1014.2 mb - 0.00 in0.0 mm 0.00 in0.0 mm
10:27 AM 51.3°F10.7°C 39.0°F3.9°C 63% 2.9 mph S4.7 kmh S 6.9 mph11.1 kmh 29.94 in1013.9 mb - 0.00 in0.0 mm 0.00 in0.0 mm
10:22 AM 51.1°F10.6°C 39.7°F4.3°C 65% 2.0 mph S3.2 kmh S 2.0 mph3.2 kmh 29.94 in1013.9 mb - 0.00 in0.0 mm 0.00 in0.0 mm
10:17 AM 50.9°F10.5°C 39.2°F4.0°C 64% 2.0 mph S3.2 kmh S 2.9 mph4.7 kmh 29.94 in1013.9 mb - 0.00 in0.0 mm 0.00 in0.0 mm
10:12 AM 50.4°F10.2°C 39.7°F4.3°C 67% 4.0 mph S6.4 kmh S 4.0 mph6.4 kmh 29.94 in1013.9 mb - 0.00 in0.0 mm 0.00 in0.0 mm
10:07 AM 49.8°F9.9°C 38.5°F3.6°C 65% 4.9 mph SSW7.9 kmh SSW 2.9 mph4.7 kmh 29.95 in1014.2 mb - 0.00 in0.0 mm 0.00 in0.0 mm
10:02 AM 49.8°F9.9°C 38.8°F3.8°C 66% 4.9 mph S7.9 kmh S 6.0 mph9.7 kmh 29.96 in1014.6 mb - 0.00 in0.0 mm 0.00 in0.0 mm
09:57 AM 49.6°F9.8°C 39.2°F4.0°C 67% 4.0 mph S6.4 kmh S 4.0 mph6.4 kmh 29.96 in1014.6 mb - 0.00 in0.0 mm 0.00 in0.0 mm
09:52 AM 49.3°F9.6°C 38.8°F3.8°C 67% 2.9 mph S4.7 kmh S -- 29.96 in1014.6 mb - 0.00 in0.0 mm 0.00 in0.0 mm
09:47 AM 49.3°F9.6°C 39.2°F4.0°C 68% 4.0 mph SSW6.4 kmh SSW 4.0 mph6.4 kmh 29.96 in1014.6 mb - 0.00 in0.0 mm 0.00 in0.0 mm
09:42 AM 48.9°F9.4°C 39.6°F4.2°C 70% 4.0 mph SSE6.4 kmh SSE 4.9 mph7.9 kmh 29.96 in1014.6 mb - 0.00 in0.0 mm 0.00 in0.0 mm
09:37 AM 48.6°F9.2°C 39.2°F4.0°C 70% 4.0 mph SSW6.4 kmh SSW 4.9 mph7.9 kmh 29.96 in1014.6 mb - 0.00 in0.0 mm 0.00 in0.0 mm
09:32 AM 48.4°F9.1°C 39.0°F3.9°C 70% 4.9 mph SSE7.9 kmh SSE 4.9 mph7.9 kmh 29.96 in1014.6 mb - 0.00 in0.0 mm 0.00 in0.0 mm
09:27 AM 48.0°F8.9°C 38.7°F3.7°C 70% 4.9 mph S7.9 kmh S 4.9 mph7.9 kmh 29.96 in1014.6 mb - 0.00 in0.0 mm 0.00 in0.0 mm
09:22 AM 47.3°F8.5°C 38.7°F3.7°C 72% 4.9 mph S7.9 kmh S 4.0 mph6.4 kmh 29.96 in1014.6 mb - 0.00 in0.0 mm 0.00 in0.0 mm
09:17 AM 46.9°F8.3°C 38.7°F3.7°C 73% 4.0 mph SSE6.4 kmh SSE 6.0 mph9.7 kmh 29.96 in1014.6 mb - 0.00 in0.0 mm 0.00 in0.0 mm
09:12 AM 46.6°F8.1°C 38.1°F3.4°C 72% 2.9 mph SE4.7 kmh SE 2.0 mph3.2 kmh 29.96 in1014.6 mb - 0.00 in0.0 mm 0.00 in0.0 mm
09:07 AM 46.6°F8.1°C 38.5°F3.6°C 73% 2.9 mph S4.7 kmh S 2.9 mph4.7 kmh 29.96 in1014.6 mb - 0.00 in0.0 mm 0.00 in0.0 mm
09:02 AM 46.2°F7.9°C 38.5°F3.6°C 74% 2.0 mph SSE3.2 kmh SSE 2.0 mph3.2 kmh 29.96 in1014.6 mb - 0.00 in0.0 mm 0.00 in0.0 mm
08:57 AM 46.0°F7.8°C 38.3°F3.5°C 74% 2.0 mph SSW3.2 kmh SSW 4.0 mph6.4 kmh 29.96 in1014.6 mb - 0.00 in0.0 mm 0.00 in0.0 mm
08:52 AM 45.9°F7.7°C 38.3°F3.5°C 75% 2.0 mph SE3.2 kmh SE 0.9 mph1.4 kmh 29.96 in1014.6 mb - 0.00 in0.0 mm 0.00 in0.0 mm
08:47 AM 45.3°F7.4°C 38.5°F3.6°C 77% 2.0 mph ESE3.2 kmh ESE 0.9 mph1.4 kmh 29.96 in1014.6 mb - 0.00 in0.0 mm 0.00 in0.0 mm
08:42 AM 45.0°F7.2°C 38.1°F3.4°C 77% 2.0 mph SE3.2 kmh SE 0.9 mph1.4 kmh 29.96 in1014.6 mb - 0.00 in0.0 mm 0.00 in0.0 mm
08:37 AM 44.4°F6.9°C 38.3°F3.5°C 79% 0.9 mph S1.4 kmh S -- 29.96 in1014.6 mb - 0.00 in0.0 mm 0.00 in0.0 mm
08:32 AM 44.2°F6.8°C 38.1°F3.4°C 79% 0.9 mph S1.4 kmh S 2.9 mph4.7 kmh 29.96 in1014.6 mb - 0.00 in0.0 mm 0.00 in0.0 mm
08:27 AM 44.2°F6.8°C 38.1°F3.4°C 79% Calm Calm -- 29.96 in1014.6 mb - 0.00 in0.0 mm 0.00 in0.0 mm
08:22 AM 43.9°F6.6°C 38.1°F3.4°C 80% Calm Calm 0.9 mph1.4 kmh 29.96 in1014.6 mb - 0.00 in0.0 mm 0.00 in0.0 mm
08:17 AM 43.3°F6.3°C 37.6°F3.1°C 80% Calm Calm -- 29.97 in1014.9 mb - 0.00 in0.0 mm 0.00 in0.0 mm
08:12 AM 43.3°F6.3°C 37.9°F3.3°C 81% 0.9 mph S1.4 kmh S -- 29.96 in1014.6 mb - 0.00 in0.0 mm 0.00 in0.0 mm
08:07 AM 42.6°F5.9°C 38.1°F3.4°C 84% Calm Calm 2.9 mph4.7 kmh 29.96 in1014.6 mb - 0.00 in0.0 mm 0.00 in0.0 mm
08:02 AM 42.3°F5.7°C 38.1°F3.4°C 85% Calm Calm -- 29.96 in1014.6 mb - 0.00 in0.0 mm 0.00 in0.0 mm
07:57 AM 41.7°F5.4°C 37.8°F3.2°C 86% 0.9 mph S1.4 kmh S -- 29.96 in1014.6 mb - 0.00 in0.0 mm 0.00 in0.0 mm
07:52 AM 41.4°F5.2°C 37.8°F3.2°C 87% 0.9 mph NE1.4 kmh NE -- 29.96 in1014.6 mb - 0.00 in0.0 mm 0.00 in0.0 mm
07:47 AM 40.8°F4.9°C 37.6°F3.1°C 88% Calm Calm 0.9 mph1.4 kmh 29.97 in1014.9 mb - 0.00 in0.0 mm 0.00 in0.0 mm
07:42 AM 40.3°F4.6°C 37.2°F2.9°C 89% Calm Calm -- 29.96 in1014.6 mb - 0.00 in0.0 mm 0.00 in0.0 mm
07:37 AM 39.4°F4.1°C 36.7°F2.6°C 90% 0.9 mph NE1.4 kmh NE -- 29.96 in1014.6 mb - 0.00 in0.0 mm 0.00 in0.0 mm
07:32 AM 38.8°F3.8°C 36.1°F2.3°C 90% 2.0 mph NE3.2 kmh NE -- 29.96 in1014.6 mb - 0.00 in0.0 mm 0.00 in0.0 mm
07:27 AM 38.7°F3.7°C 36.0°F2.2°C 90% 0.9 mph NW1.4 kmh NW 4.9 mph7.9 kmh 29.96 in1014.6 mb - 0.00 in0.0 mm 0.00 in0.0 mm
07:22 AM 38.7°F3.7°C 36.0°F2.2°C 90% Calm Calm -- 29.96 in1014.6 mb - 0.00 in0.0 mm 0.00 in0.0 mm
07:17 AM 38.5°F3.6°C 35.6°F2.0°C 89% Calm Calm -- 29.96 in1014.6 mb - 0.00 in0.0 mm 0.00 in0.0 mm
07:12 AM 38.7°F3.7°C 35.8°F2.1°C 89% Calm Calm -- 29.96 in1014.6 mb - 0.00 in0.0 mm 0.00 in0.0 mm
07:07 AM 39.0°F3.9°C 36.1°F2.3°C 89% 0.9 mph NE1.4 kmh NE -- 29.96 in1014.6 mb - 0.00 in0.0 mm 0.00 in0.0 mm
07:02 AM 39.4°F4.1°C 36.5°F2.5°C 89% 2.0 mph E3.2 kmh E 2.0 mph3.2 kmh 29.96 in1014.6 mb - 0.00 in0.0 mm 0.00 in0.0 mm
06:57 AM 39.6°F4.2°C 36.5°F2.5°C 89% 2.0 mph SE3.2 kmh SE 0.9 mph1.4 kmh 29.96 in1014.6 mb - 0.00 in0.0 mm 0.00 in0.0 mm
06:52 AM 39.6°F4.2°C 36.5°F2.5°C 89% 2.9 mph S4.7 kmh S 2.0 mph3.2 kmh 29.96 in1014.6 mb - 0.00 in0.0 mm 0.00 in0.0 mm
06:47 AM 39.6°F4.2°C 36.9°F2.7°C 90% 4.0 mph SSW6.4 kmh SSW 2.9 mph4.7 kmh 29.96 in1014.6 mb - 0.00 in0.0 mm 0.00 in0.0 mm
06:42 AM 39.2°F4.0°C 36.5°F2.5°C 90% 4.0 mph SSW6.4 kmh SSW 4.9 mph7.9 kmh 29.96 in1014.6 mb - 0.00 in0.0 mm 0.00 in0.0 mm
06:37 AM 38.8°F3.8°C 36.5°F2.5°C 91% 2.9 mph S4.7 kmh S 4.0 mph6.4 kmh 29.96 in1014.6 mb - 0.00 in0.0 mm 0.00 in0.0 mm
06:32 AM 38.5°F3.6°C 36.1°F2.3°C 91% 0.9 mph S1.4 kmh S 4.9 mph7.9 kmh 29.96 in1014.6 mb - 0.00 in0.0 mm 0.00 in0.0 mm
06:27 AM 38.7°F3.7°C 36.3°F2.4°C 91% 0.9 mph N1.4 kmh N 2.0 mph3.2 kmh 29.96 in1014.6 mb - 0.00 in0.0 mm 0.00 in0.0 mm
06:22 AM 38.8°F3.8°C 36.5°F2.5°C 91% 2.0 mph SSW3.2 kmh SSW 0.9 mph1.4 kmh 29.96 in1014.6 mb - 0.00 in0.0 mm 0.00 in0.0 mm
06:17 AM 38.7°F3.7°C 36.5°F2.5°C 92% 2.0 mph S3.2 kmh S 2.9 mph4.7 kmh 29.96 in1014.6 mb - 0.00 in0.0 mm 0.00 in0.0 mm
06:12 AM 38.3°F3.5°C 36.1°F2.3°C 92% 2.0 mph SSE3.2 kmh SSE 4.0 mph6.4 kmh 29.96 in1014.6 mb - 0.00 in0.0 mm 0.00 in0.0 mm
06:07 AM 38.1°F3.4°C 36.0°F2.2°C 92% 2.0 mph E3.2 kmh E 2.9 mph4.7 kmh 29.96 in1014.6 mb - 0.00 in0.0 mm 0.00 in0.0 mm
06:02 AM 37.9°F3.3°C 35.8°F2.1°C 92% Calm Calm 2.9 mph4.7 kmh 29.96 in1014.6 mb - 0.00 in0.0 mm 0.00 in0.0 mm
05:57 AM 37.8°F3.2°C 35.6°F2.0°C 92% 0.9 mph N1.4 kmh N -- 29.96 in1014.6 mb - 0.00 in0.0 mm 0.00 in0.0 mm
05:52 AM 37.8°F3.2°C 35.6°F2.0°C 92% 0.9 mph N1.4 kmh N -- 29.96 in1014.6 mb - 0.00 in0.0 mm 0.00 in0.0 mm
05:47 AM 37.6°F3.1°C 35.4°F1.9°C 92% Calm Calm -- 29.96 in1014.6 mb - 0.00 in0.0 mm 0.00 in0.0 mm
05:42 AM 37.6°F3.1°C 35.2°F1.8°C 91% Calm Calm 2.0 mph3.2 kmh 29.96 in1014.6 mb - 0.00 in0.0 mm 0.00 in0.0 mm
05:37 AM 37.8°F3.2°C 35.4°F1.9°C 91% Calm Calm -- 29.96 in1014.6 mb - 0.00 in0.0 mm 0.00 in0.0 mm
05:32 AM 37.8°F3.2°C 35.4°F1.9°C 91% Calm Calm -- 29.96 in1014.6 mb - 0.00 in0.0 mm 0.00 in0.0 mm
05:27 AM 37.9°F3.3°C 35.6°F2.0°C 91% Calm Calm -- 29.96 in1014.6 mb - 0.00 in0.0 mm 0.00 in0.0 mm
05:22 AM 37.9°F3.3°C 35.6°F2.0°C 91% 0.9 mph E1.4 kmh E -- 29.96 in1014.6 mb - 0.00 in0.0 mm 0.00 in0.0 mm
05:17 AM 38.1°F3.4°C 35.4°F1.9°C 90% 0.9 mph E1.4 kmh E -- 29.95 in1014.2 mb - 0.00 in0.0 mm 0.00 in0.0 mm
05:12 AM 38.5°F3.6°C 35.8°F2.1°C 90% Calm Calm 2.0 mph3.2 kmh 29.95 in1014.2 mb - 0.00 in0.0 mm 0.00 in0.0 mm
05:07 AM 38.7°F3.7°C 36.0°F2.2°C 90% Calm Calm -- 29.95 in1014.2 mb - 0.00 in0.0 mm 0.00 in0.0 mm
05:02 AM 38.7°F3.7°C 36.0°F2.2°C 90% Calm Calm -- 29.95 in1014.2 mb - 0.00 in0.0 mm 0.00 in0.0 mm
04:57 AM 38.7°F3.7°C 36.0°F2.2°C 90% 2.0 mph SE3.2 kmh SE -- 29.95 in1014.2 mb - 0.00 in0.0 mm 0.00 in0.0 mm
04:52 AM 38.7°F3.7°C 36.3°F2.4°C 91% 2.0 mph SE3.2 kmh SE -- 29.95 in1014.2 mb - 0.00 in0.0 mm 0.00 in0.0 mm
04:47 AM 38.7°F3.7°C 36.3°F2.4°C 91% 2.0 mph SSE3.2 kmh SSE 2.9 mph4.7 kmh 29.96 in1014.6 mb - 0.00 in0.0 mm 0.00 in0.0 mm
04:42 AM 38.5°F3.6°C 36.1°F2.3°C 91% 2.0 mph SE3.2 kmh SE 2.0 mph3.2 kmh 29.96 in1014.6 mb - 0.00 in0.0 mm 0.00 in0.0 mm
04:37 AM 38.1°F3.4°C 35.8°F2.1°C 91% 2.0 mph S3.2 kmh S 2.9 mph4.7 kmh 29.95 in1014.2 mb - 0.00 in0.0 mm 0.00 in0.0 mm
04:32 AM 37.9°F3.3°C 35.6°F2.0°C 91% 0.9 mph S1.4 kmh S 2.9 mph4.7 kmh 29.95 in1014.2 mb - 0.00 in0.0 mm 0.00 in0.0 mm
04:27 AM 37.9°F3.3°C 35.2°F1.8°C 90% Calm Calm -- 29.95 in1014.2 mb - 0.00 in0.0 mm 0.00 in0.0 mm
04:22 AM 37.9°F3.3°C 35.2°F1.8°C 90% 0.9 mph SSE1.4 kmh SSE -- 29.96 in1014.6 mb - 0.00 in0.0 mm 0.00 in0.0 mm
04:17 AM 37.9°F3.3°C 35.2°F1.8°C 90% 0.9 mph S1.4 kmh S -- 29.96 in1014.6 mb - 0.00 in0.0 mm 0.00 in0.0 mm
04:12 AM 37.9°F3.3°C 35.2°F1.8°C 90% Calm Calm -- 29.96 in1014.6 mb - 0.00 in0.0 mm 0.00 in0.0 mm
04:07 AM 37.9°F3.3°C 35.6°F2.0°C 91% Calm Calm -- 29.95 in1014.2 mb - 0.00 in0.0 mm 0.00 in0.0 mm
04:02 AM 38.1°F3.4°C 35.8°F2.1°C 91% Calm Calm -- 29.96 in1014.6 mb - 0.00 in0.0 mm 0.00 in0.0 mm
03:57 AM 38.1°F3.4°C 35.4°F1.9°C 90% Calm Calm -- 29.95 in1014.2 mb - 0.00 in0.0 mm 0.00 in0.0 mm
03:52 AM 38.1°F3.4°C 35.4°F1.9°C 90% Calm Calm -- 29.95 in1014.2 mb - 0.00 in0.0 mm 0.00 in0.0 mm
03:47 AM 38.3°F3.5°C 35.6°F2.0°C 90% Calm Calm -- 29.96 in1014.6 mb - 0.00 in0.0 mm 0.00 in0.0 mm
03:42 AM 38.5°F3.6°C 35.8°F2.1°C 90% Calm Calm 0.9 mph1.4 kmh 29.96 in1014.6 mb - 0.00 in0.0 mm 0.00 in0.0 mm
03:37 AM 38.7°F3.7°C 36.0°F2.2°C 90% Calm Calm -- 29.96 in1014.6 mb - 0.00 in0.0 mm 0.00 in0.0 mm
03:32 AM 38.7°F3.7°C 36.3°F2.4°C 91% 0.9 mph S1.4 kmh S -- 29.96 in1014.6 mb - 0.00 in0.0 mm 0.00 in0.0 mm
03:27 AM 38.8°F3.8°C 36.5°F2.5°C 91% 2.0 mph S3.2 kmh S 2.0 mph3.2 kmh 29.96 in1014.6 mb - 0.00 in0.0 mm 0.00 in0.0 mm
03:22 AM 38.8°F3.8°C 36.7°F2.6°C 92% 2.0 mph SE3.2 kmh SE 2.0 mph3.2 kmh 29.96 in1014.6 mb - 0.00 in0.0 mm 0.00 in0.0 mm
03:17 AM 38.7°F3.7°C 36.5°F2.5°C 92% 2.0 mph S3.2 kmh S 2.0 mph3.2 kmh 29.96 in1014.6 mb - 0.00 in0.0 mm 0.00 in0.0 mm
03:12 AM 38.7°F3.7°C 36.9°F2.7°C 93% 2.9 mph SSE4.7 kmh SSE 4.9 mph7.9 kmh 29.96 in1014.6 mb - 0.00 in0.0 mm 0.00 in0.0 mm
03:07 AM 38.5°F3.6°C 36.7°F2.6°C 93% 2.9 mph SE4.7 kmh SE 2.9 mph4.7 kmh 29.96 in1014.6 mb - 0.00 in0.0 mm 0.00 in0.0 mm
03:02 AM 38.5°F3.6°C 36.9°F2.7°C 94% 0.9 mph SSE1.4 kmh SSE 4.9 mph7.9 kmh 29.97 in1014.9 mb - 0.00 in0.0 mm 0.00 in0.0 mm
02:57 AM 38.7°F3.7°C 37.0°F2.8°C 94% Calm Calm -- 29.97 in1014.9 mb - 0.00 in0.0 mm 0.00 in0.0 mm
02:52 AM 38.7°F3.7°C 37.0°F2.8°C 94% Calm Calm -- 29.97 in1014.9 mb - 0.00 in0.0 mm 0.00 in0.0 mm
02:47 AM 38.7°F3.7°C 37.0°F2.8°C 94% Calm Calm -- 29.97 in1014.9 mb - 0.00 in0.0 mm 0.00 in0.0 mm
02:42 AM 38.7°F3.7°C 37.0°F2.8°C 94% Calm Calm -- 29.97 in1014.9 mb - 0.00 in0.0 mm 0.00 in0.0 mm
02:37 AM 38.8°F3.8°C 37.0°F2.8°C 93% Calm Calm 0.9 mph1.4 kmh 29.97 in1014.9 mb - 0.00 in0.0 mm 0.00 in0.0 mm
02:32 AM 38.8°F3.8°C 37.0°F2.8°C 93% Calm Calm -- 29.97 in1014.9 mb - 0.00 in0.0 mm 0.00 in0.0 mm
02:27 AM 38.8°F3.8°C 37.0°F2.8°C 93% Calm Calm -- 29.98 in1015.2 mb - 0.00 in0.0 mm 0.00 in0.0 mm
02:22 AM 38.8°F3.8°C 37.0°F2.8°C 93% Calm Calm -- 29.98 in1015.2 mb - 0.00 in0.0 mm 0.00 in0.0 mm
02:17 AM 38.8°F3.8°C 37.0°F2.8°C 93% Calm Calm -- 29.98 in1015.2 mb - 0.00 in0.0 mm 0.00 in0.0 mm
02:12 AM 38.8°F3.8°C 37.0°F2.8°C 93% Calm Calm -- 29.98 in1015.2 mb - 0.00 in0.0 mm 0.00 in0.0 mm
02:07 AM 38.7°F3.7°C 36.9°F2.7°C 93% Calm Calm -- 29.98 in1015.2 mb - 0.00 in0.0 mm 0.00 in0.0 mm
02:02 AM 38.7°F3.7°C 36.9°F2.7°C 93% Calm Calm -- 29.98 in1015.2 mb - 0.00 in0.0 mm 0.00 in0.0 mm
01:57 AM 38.8°F3.8°C 37.0°F2.8°C 93% Calm Calm -- 29.98 in1015.2 mb - 0.00 in0.0 mm 0.00 in0.0 mm
01:52 AM 38.7°F3.7°C 36.9°F2.7°C 93% Calm Calm -- 29.98 in1015.2 mb - 0.00 in0.0 mm 0.00 in0.0 mm
01:47 AM 38.7°F3.7°C 36.9°F2.7°C 93% Calm Calm -- 29.98 in1015.2 mb - 0.00 in0.0 mm 0.00 in0.0 mm
01:42 AM 38.7°F3.7°C 36.9°F2.7°C 93% Calm Calm -- 29.98 in1015.2 mb - 0.00 in0.0 mm 0.00 in0.0 mm
01:37 AM 38.7°F3.7°C 36.9°F2.7°C 93% Calm Calm -- 29.98 in1015.2 mb - 0.00 in0.0 mm 0.00 in0.0 mm
01:32 AM 38.7°F3.7°C 36.9°F2.7°C 93% Calm Calm -- 29.98 in1015.2 mb - 0.00 in0.0 mm 0.00 in0.0 mm
01:27 AM 38.7°F3.7°C 36.9°F2.7°C 93% Calm Calm -- 29.98 in1015.2 mb - 0.00 in0.0 mm 0.00 in0.0 mm
01:22 AM 38.7°F3.7°C 36.9°F2.7°C 93% Calm Calm -- 29.98 in1015.2 mb - 0.00 in0.0 mm 0.00 in0.0 mm
01:17 AM 38.7°F3.7°C 36.9°F2.7°C 93% Calm Calm -- 29.98 in1015.2 mb - 0.00 in0.0 mm 0.00 in0.0 mm
01:12 AM 38.7°F3.7°C 36.5°F2.5°C 92% Calm Calm -- 29.98 in1015.2 mb - 0.00 in0.0 mm 0.00 in0.0 mm
01:07 AM 38.7°F3.7°C 36.5°F2.5°C 92% Calm Calm -- 29.98 in1015.2 mb - 0.00 in0.0 mm 0.00 in0.0 mm
01:02 AM 38.8°F3.8°C 36.7°F2.6°C 92% Calm Calm -- 29.98 in1015.2 mb - 0.00 in0.0 mm 0.00 in0.0 mm
12:57 AM 38.8°F3.8°C 36.7°F2.6°C 92% Calm Calm -- 29.98 in1015.2 mb - 0.00 in0.0 mm 0.00 in0.0 mm
12:52 AM 38.8°F3.8°C 36.7°F2.6°C 92% Calm Calm -- 29.98 in1015.2 mb - 0.00 in0.0 mm 0.00 in0.0 mm
12:47 AM 38.8°F3.8°C 36.7°F2.6°C 92% Calm Calm -- 29.98 in1015.2 mb - 0.00 in0.0 mm 0.00 in0.0 mm
12:42 AM 38.8°F3.8°C 36.7°F2.6°C 92% Calm Calm -- 29.98 in1015.2 mb - 0.00 in0.0 mm 0.00 in0.0 mm
12:37 AM 38.8°F3.8°C 36.7°F2.6°C 92% Calm Calm -- 29.98 in1015.2 mb - 0.00 in0.0 mm 0.00 in0.0 mm
12:32 AM 38.8°F3.8°C 36.7°F2.6°C 92% Calm Calm -- 29.98 in1015.2 mb - 0.00 in0.0 mm 0.00 in0.0 mm
12:27 AM 38.8°F3.8°C 36.7°F2.6°C 92% 0.9 mph N1.4 kmh N -- 29.98 in1015.2 mb - 0.00 in0.0 mm 0.00 in0.0 mm
12:22 AM 38.8°F3.8°C 36.7°F2.6°C 92% 0.9 mph N1.4 kmh N -- 29.98 in1015.2 mb - 0.00 in0.0 mm 0.00 in0.0 mm
12:17 AM 38.8°F3.8°C 36.7°F2.6°C 92% Calm Calm -- 29.98 in1015.2 mb - 0.00 in0.0 mm 0.00 in0.0 mm
12:12 AM 38.8°F3.8°C 36.7°F2.6°C 92% 0.9 mph NNW1.4 kmh NNW -- 29.97 in1014.9 mb - 0.00 in0.0 mm 0.00 in0.0 mm
12:07 AM 38.8°F3.8°C 36.5°F2.5°C 91% 0.9 mph NNW1.4 kmh NNW -- 29.98 in1015.2 mb - 0.00 in0.0 mm 0.23 in5.8 mm
12:02 AM 38.8°F3.8°C 36.5°F2.5°C 91% Calm Calm -- 29.97 in1014.9 mb - 0.00 in0.0 mm 0.23 in5.8 mm